UAE863 OOMS-OMDB
Flight info
| Callsign | UAE863 |
|---|---|
| Flight time | 0h 55m |
| Altitude | 22000 |
| Route | MCT T508 SOLUD P574 IMPED |
| Aircraft | A359/H-SDE2E3GHIJ3J4J5LM1ORWXY/LB1D1 |
Departure
| Time | 2026-05-04 22:35 |
|---|---|
| Airport | Muscat International Airport (OOMS) |
Arrival
| Time | 2026-05-04 23:30 |
|---|---|
| Airport | Dubai International Airport (OMDB) |
| Time | Latitude | Longitude | Altitude | Speed | Heading |
|---|---|---|---|---|---|
| 2026-05-04 22:24 | 23.59831 | 58.27940 | 48 ft | 0 kts | 219° |
| 2026-05-04 22:25 | 23.59823 | 58.27933 | 45 ft | 3 kts | 220° |
| 2026-05-04 22:25 | 23.59798 | 58.27911 | 43 ft | 6 kts | 219° |
| 2026-05-04 22:26 | 23.59757 | 58.27875 | 46 ft | 9 kts | 219° |
| 2026-05-04 22:26 | 23.59701 | 58.27825 | 47 ft | 12 kts | 220° |
| 2026-05-04 22:26 | 23.59633 | 58.27760 | 45 ft | 14 kts | 221° |
| 2026-05-04 22:26 | 23.59561 | 58.27686 | 47 ft | 11 kts | 242° |
| 2026-05-04 22:27 | 23.59537 | 58.27595 | 48 ft | 14 kts | 262° |
| 2026-05-04 22:27 | 23.59527 | 58.27483 | 49 ft | 16 kts | 265° |
| 2026-05-04 22:27 | 23.59516 | 58.27355 | 49 ft | 17 kts | 262° |
| 2026-05-04 22:27 | 23.59443 | 58.27306 | 45 ft | 13 kts | 139° |
| 2026-05-04 22:28 | 23.59421 | 58.27405 | 50 ft | 15 kts | 89° |
| 2026-05-04 22:28 | 23.59429 | 58.27525 | 50 ft | 17 kts | 84° |
| 2026-05-04 22:28 | 23.59440 | 58.27655 | 46 ft | 4 kts | 85° |
| 2026-05-04 22:28 | 23.59440 | 58.27656 | 46 ft | 0 kts | 85° |
| 2026-05-04 22:29 | 23.59440 | 58.27661 | 46 ft | 3 kts | 85° |
| 2026-05-04 22:30 | 23.59446 | 58.27713 | 49 ft | 9 kts | 76° |
| 2026-05-04 22:30 | 23.59486 | 58.27774 | 48 ft | 11 kts | 30° |
| 2026-05-04 22:30 | 23.59538 | 58.27762 | 45 ft | 4 kts | 291° |
| 2026-05-04 22:30 | 23.59542 | 58.27716 | 50 ft | 8 kts | 272° |
| 2026-05-04 22:31 | 23.59541 | 58.27641 | 47 ft | 12 kts | 268° |
| 2026-05-04 22:31 | 23.59534 | 58.27542 | 50 ft | 15 kts | 265° |
| 2026-05-04 22:31 | 23.59523 | 58.27421 | 47 ft | 18 kts | 264° |
| 2026-05-04 22:31 | 23.59511 | 58.27279 | 45 ft | 20 kts | 263° |
| 2026-05-04 22:32 | 23.59496 | 58.27119 | 50 ft | 22 kts | 265° |
| 2026-05-04 22:32 | 23.59485 | 58.26945 | 50 ft | 24 kts | 266° |
| 2026-05-04 22:32 | 23.59471 | 58.26775 | 49 ft | 18 kts | 263° |
| 2026-05-04 22:32 | 23.59408 | 58.26679 | 48 ft | 17 kts | 187° |
| 2026-05-04 22:33 | 23.59282 | 58.26684 | 47 ft | 18 kts | 175° |
| 2026-05-04 22:33 | 23.59181 | 58.26736 | 45 ft | 17 kts | 103° |
| 2026-05-04 22:33 | 23.59178 | 58.26826 | 45 ft | 0 kts | 86° |
| 2026-05-04 22:34 | 23.59179 | 58.26840 | 45 ft | 14 kts | 86° |
| 2026-05-04 22:34 | 23.59214 | 58.27293 | 50 ft | 110 kts | 85° |
| 2026-05-04 22:34 | 23.59309 | 58.28460 | 108 ft | 192 kts | 85° |
| 2026-05-04 22:35 | 23.59444 | 58.30071 | 676 ft | 236 kts | 85° |
| 2026-05-04 22:35 | 23.59603 | 58.32067 | 1207 ft | 293 kts | 86° |
| 2026-05-04 22:35 | 23.59275 | 58.34440 | 1438 ft | 333 kts | 111° |
| 2026-05-04 22:35 | 23.58045 | 58.36458 | 1316 ft | 314 kts | 137° |
| 2026-05-04 22:36 | 23.56200 | 58.37544 | 1121 ft | 296 kts | 168° |
| 2026-05-04 22:36 | 23.54220 | 58.37401 | 1303 ft | 287 kts | 200° |
| 2026-05-04 22:36 | 23.52580 | 58.36122 | 1559 ft | 301 kts | 232° |
| 2026-05-04 22:36 | 23.51793 | 58.34067 | 2307 ft | 298 kts | 262° |
| 2026-05-04 22:37 | 23.51900 | 58.31838 | 3388 ft | 286 kts | 283° |
| 2026-05-04 22:37 | 23.52644 | 58.29883 | 4396 ft | 276 kts | 303° |
| 2026-05-04 22:37 | 23.53938 | 58.28428 | 5297 ft | 270 kts | 324° |
| 2026-05-04 22:37 | 23.55546 | 58.27375 | 6056 ft | 270 kts | 332° |
| 2026-05-04 22:38 | 23.57236 | 58.26459 | 6721 ft | 272 kts | 330° |
| 2026-05-04 22:38 | 23.58741 | 58.25200 | 7388 ft | 275 kts | 313° |
| 2026-05-04 22:38 | 23.59827 | 58.23485 | 8045 ft | 276 kts | 299° |
| 2026-05-04 22:38 | 23.60655 | 58.21585 | 8715 ft | 279 kts | 292° |
| 2026-05-04 22:39 | 23.61325 | 58.19589 | 9363 ft | 282 kts | 288° |
| 2026-05-04 22:39 | 23.61914 | 58.17544 | 10026 ft | 284 kts | 287° |
| 2026-05-04 22:39 | 23.62490 | 58.15440 | 10445 ft | 297 kts | 286° |
| 2026-05-04 22:39 | 23.63102 | 58.13229 | 10703 ft | 313 kts | 287° |
| 2026-05-04 22:40 | 23.63766 | 58.10908 | 10964 ft | 328 kts | 287° |
| 2026-05-04 22:40 | 23.64480 | 58.08489 | 11226 ft | 342 kts | 288° |
| 2026-05-04 22:40 | 23.65233 | 58.05996 | 11648 ft | 349 kts | 288° |
| 2026-05-04 22:40 | 23.66004 | 58.03473 | 12179 ft | 353 kts | 288° |
| 2026-05-04 22:41 | 23.66785 | 58.00926 | 12697 ft | 356 kts | 288° |
| 2026-05-04 22:41 | 23.67573 | 57.98357 | 13227 ft | 359 kts | 288° |
| 2026-05-04 22:41 | 23.68366 | 57.95766 | 13717 ft | 361 kts | 288° |
| 2026-05-04 22:41 | 23.69285 | 57.93207 | 14218 ft | 364 kts | 296° |
| 2026-05-04 22:42 | 23.70588 | 57.90826 | 14723 ft | 367 kts | 303° |
| 2026-05-04 22:42 | 23.72062 | 57.88538 | 15219 ft | 370 kts | 306° |
| 2026-05-04 22:42 | 23.73627 | 57.86302 | 15706 ft | 372 kts | 308° |
| 2026-05-04 22:42 | 23.75245 | 57.84082 | 16171 ft | 375 kts | 308° |
| 2026-05-04 22:43 | 23.76891 | 57.81855 | 16652 ft | 378 kts | 309° |
| 2026-05-04 22:43 | 23.78543 | 57.79614 | 17116 ft | 380 kts | 308° |
| 2026-05-04 22:43 | 23.80201 | 57.77352 | 17561 ft | 383 kts | 308° |
| 2026-05-04 22:43 | 23.81863 | 57.75065 | 17996 ft | 386 kts | 308° |
| 2026-05-04 22:44 | 23.83530 | 57.72762 | 18487 ft | 387 kts | 308° |
| 2026-05-04 22:44 | 23.85154 | 57.70508 | 18871 ft | 364 kts | 308° |
| 2026-05-04 22:44 | 23.86674 | 57.68396 | 18995 ft | 344 kts | 308° |
| 2026-05-04 22:44 | 23.88115 | 57.66389 | 18993 ft | 328 kts | 308° |
| 2026-05-04 22:45 | 23.89489 | 57.64476 | 18993 ft | 312 kts | 308° |
| 2026-05-04 22:45 | 23.92034 | 57.60931 | 18991 ft | 281 kts | 308° |
| 2026-05-04 22:45 | 23.93210 | 57.59293 | 18990 ft | 267 kts | 308° |
| 2026-05-04 22:46 | 23.94347 | 57.57723 | 18996 ft | 262 kts | 311° |
| 2026-05-04 22:46 | 23.95480 | 57.56167 | 19000 ft | 261 kts | 305° |
| 2026-05-04 22:46 | 23.96565 | 57.54576 | 19000 ft | 261 kts | 304° |
| 2026-05-04 22:46 | 23.97639 | 57.52977 | 19001 ft | 261 kts | 304° |
| 2026-05-04 22:47 | 23.98723 | 57.51381 | 18997 ft | 261 kts | 304° |
| 2026-05-04 22:47 | 23.99818 | 57.49797 | 19000 ft | 261 kts | 305° |
| 2026-05-04 22:47 | 24.00911 | 57.48242 | 19000 ft | 261 kts | 305° |
| 2026-05-04 22:47 | 24.02026 | 57.46674 | 19000 ft | 261 kts | 306° |
| 2026-05-04 22:48 | 24.03133 | 57.45129 | 19267 ft | 258 kts | 306° |
| 2026-05-04 22:48 | 24.04268 | 57.43545 | 19487 ft | 273 kts | 306° |
| 2026-05-04 22:48 | 24.05472 | 57.41856 | 19729 ft | 290 kts | 306° |
| 2026-05-04 22:48 | 24.06755 | 57.40047 | 19810 ft | 313 kts | 306° |
| 2026-05-04 22:49 | 24.08138 | 57.38091 | 19811 ft | 336 kts | 306° |
| 2026-05-04 22:49 | 24.09590 | 57.36036 | 19803 ft | 344 kts | 306° |
| 2026-05-04 22:49 | 24.11064 | 57.33960 | 19801 ft | 347 kts | 306° |
| 2026-05-04 22:49 | 24.12547 | 57.31876 | 19800 ft | 347 kts | 306° |
| 2026-05-04 22:50 | 24.14034 | 57.29792 | 19800 ft | 347 kts | 306° |
| 2026-05-04 22:50 | 24.15522 | 57.27708 | 19800 ft | 347 kts | 306° |
| 2026-05-04 22:50 | 24.17010 | 57.25623 | 19800 ft | 347 kts | 306° |
| 2026-05-04 22:50 | 24.18497 | 57.23539 | 19800 ft | 347 kts | 306° |
| 2026-05-04 22:51 | 24.19983 | 57.21455 | 19800 ft | 347 kts | 306° |
| 2026-05-04 22:51 | 24.21470 | 57.19368 | 19800 ft | 347 kts | 306° |
| 2026-05-04 22:51 | 24.22956 | 57.17282 | 19800 ft | 347 kts | 306° |
| 2026-05-04 22:51 | 24.24442 | 57.15193 | 19800 ft | 347 kts | 306° |
| 2026-05-04 22:52 | 24.25926 | 57.13107 | 19800 ft | 347 kts | 306° |
| 2026-05-04 22:52 | 24.27412 | 57.11017 | 19800 ft | 347 kts | 306° |
| 2026-05-04 22:52 | 24.28897 | 57.08928 | 19800 ft | 347 kts | 306° |
| 2026-05-04 22:52 | 24.30381 | 57.06840 | 19800 ft | 347 kts | 306° |
| 2026-05-04 22:53 | 24.31866 | 57.04750 | 19800 ft | 347 kts | 306° |
| 2026-05-04 22:53 | 24.33349 | 57.02660 | 19800 ft | 347 kts | 306° |
| 2026-05-04 22:53 | 24.34832 | 57.00571 | 19800 ft | 347 kts | 306° |
| 2026-05-04 22:53 | 24.36317 | 56.98477 | 19800 ft | 347 kts | 306° |
| 2026-05-04 22:54 | 24.37799 | 56.96387 | 19800 ft | 347 kts | 306° |
| 2026-05-04 22:54 | 24.39282 | 56.94295 | 19800 ft | 347 kts | 306° |
| 2026-05-04 22:54 | 24.40764 | 56.92202 | 19800 ft | 347 kts | 306° |
| 2026-05-04 22:54 | 24.42247 | 56.90107 | 19800 ft | 347 kts | 306° |
| 2026-05-04 22:55 | 24.43729 | 56.88013 | 19800 ft | 347 kts | 306° |
| 2026-05-04 22:55 | 24.45191 | 56.85947 | 19800 ft | 347 kts | 306° |
| 2026-05-04 22:55 | 24.46672 | 56.83853 | 19800 ft | 347 kts | 306° |
| 2026-05-04 22:55 | 24.48153 | 56.81759 | 19800 ft | 347 kts | 306° |
| 2026-05-04 22:56 | 24.49634 | 56.79662 | 19800 ft | 347 kts | 306° |
| 2026-05-04 22:56 | 24.51113 | 56.77568 | 19800 ft | 347 kts | 306° |
| 2026-05-04 22:56 | 24.52595 | 56.75468 | 19800 ft | 347 kts | 306° |
| 2026-05-04 22:56 | 24.54074 | 56.73374 | 19800 ft | 347 kts | 306° |
| 2026-05-04 22:57 | 24.55555 | 56.71279 | 19800 ft | 347 kts | 306° |
| 2026-05-04 22:57 | 24.57038 | 56.69181 | 19800 ft | 347 kts | 306° |
| 2026-05-04 22:57 | 24.58520 | 56.67086 | 19800 ft | 347 kts | 306° |
| 2026-05-04 22:57 | 24.60003 | 56.64989 | 19800 ft | 347 kts | 306° |
| 2026-05-04 22:58 | 24.61484 | 56.62893 | 19800 ft | 347 kts | 306° |
| 2026-05-04 22:58 | 24.62965 | 56.60795 | 19800 ft | 347 kts | 306° |
| 2026-05-04 22:58 | 24.64448 | 56.58696 | 19800 ft | 347 kts | 306° |
| 2026-05-04 22:58 | 24.65426 | 56.57309 | 19800 ft | 347 kts | 306° |
| 2026-05-04 22:59 | 24.66907 | 56.55209 | 19800 ft | 347 kts | 306° |
| 2026-05-04 22:59 | 24.68387 | 56.53110 | 19800 ft | 347 kts | 306° |
| 2026-05-04 22:59 | 24.69866 | 56.51011 | 19800 ft | 347 kts | 306° |
| 2026-05-04 22:59 | 24.71336 | 56.48922 | 19697 ft | 340 kts | 306° |
| 2026-05-04 23:00 | 24.72764 | 56.46898 | 19495 ft | 333 kts | 306° |
| 2026-05-04 23:00 | 24.74202 | 56.44852 | 19015 ft | 343 kts | 306° |
| 2026-05-04 23:00 | 24.75669 | 56.42758 | 18323 ft | 348 kts | 306° |
| 2026-05-04 23:00 | 24.77153 | 56.40640 | 17631 ft | 352 kts | 306° |
| 2026-05-04 23:01 | 24.78655 | 56.38497 | 16951 ft | 354 kts | 306° |
| 2026-05-04 23:01 | 24.80151 | 56.36336 | 16319 ft | 356 kts | 305° |
| 2026-05-04 23:01 | 24.81637 | 56.34153 | 15665 ft | 357 kts | 305° |
| 2026-05-04 23:01 | 24.83119 | 56.31962 | 15019 ft | 357 kts | 304° |
| 2026-05-04 23:02 | 24.84601 | 56.29763 | 14380 ft | 357 kts | 305° |
| 2026-05-04 23:02 | 24.86073 | 56.27582 | 13945 ft | 351 kts | 305° |
| 2026-05-04 23:02 | 24.87438 | 56.25420 | 13802 ft | 335 kts | 300° |
| 2026-05-04 23:02 | 24.88627 | 56.23285 | 13790 ft | 320 kts | 299° |
| 2026-05-04 23:03 | 24.89759 | 56.21192 | 13591 ft | 318 kts | 298° |
| 2026-05-04 23:03 | 24.90867 | 56.19097 | 13140 ft | 315 kts | 298° |
| 2026-05-04 23:03 | 24.91956 | 56.17013 | 12686 ft | 313 kts | 297° |
| 2026-05-04 23:03 | 24.93032 | 56.14938 | 12231 ft | 310 kts | 297° |
| 2026-05-04 23:04 | 24.94097 | 56.12878 | 12020 ft | 310 kts | 297° |
| 2026-05-04 23:04 | 24.95161 | 56.10813 | 12147 ft | 309 kts | 297° |
| 2026-05-04 23:04 | 24.96193 | 56.08811 | 12228 ft | 290 kts | 297° |
| 2026-05-04 23:04 | 24.97213 | 56.06956 | 12235 ft | 279 kts | 303° |
| 2026-05-04 23:05 | 24.98433 | 56.05302 | 12211 ft | 278 kts | 309° |
| 2026-05-04 23:05 | 24.99711 | 56.03729 | 11958 ft | 274 kts | 310° |
| 2026-05-04 23:05 | 25.00992 | 56.02176 | 11807 ft | 274 kts | 310° |
| 2026-05-04 23:05 | 25.02272 | 56.00620 | 11663 ft | 273 kts | 310° |
| 2026-05-04 23:06 | 25.03546 | 55.99068 | 11522 ft | 272 kts | 310° |
| 2026-05-04 23:06 | 25.04813 | 55.97521 | 11373 ft | 272 kts | 310° |
| 2026-05-04 23:06 | 25.06078 | 55.95976 | 11265 ft | 271 kts | 309° |
| 2026-05-04 23:06 | 25.07342 | 55.94427 | 11245 ft | 272 kts | 309° |
| 2026-05-04 23:07 | 25.08605 | 55.92878 | 11245 ft | 271 kts | 309° |
| 2026-05-04 23:07 | 25.09866 | 55.91331 | 11246 ft | 271 kts | 309° |
| 2026-05-04 23:07 | 25.11127 | 55.89783 | 11248 ft | 271 kts | 309° |
| 2026-05-04 23:07 | 25.12384 | 55.88241 | 11224 ft | 267 kts | 309° |
| 2026-05-04 23:08 | 25.13616 | 55.86729 | 10857 ft | 265 kts | 309° |
| 2026-05-04 23:08 | 25.14851 | 55.85207 | 10452 ft | 266 kts | 309° |
| 2026-05-04 23:08 | 25.15969 | 55.83581 | 10169 ft | 265 kts | 301° |
| 2026-05-04 23:08 | 25.16959 | 55.81858 | 10028 ft | 266 kts | 299° |
| 2026-05-04 23:09 | 25.17925 | 55.80121 | 9898 ft | 265 kts | 299° |
| 2026-05-04 23:09 | 25.18828 | 55.78352 | 9779 ft | 264 kts | 291° |
| 2026-05-04 23:09 | 25.19347 | 55.76424 | 9728 ft | 263 kts | 280° |
| 2026-05-04 23:09 | 25.19701 | 55.74445 | 9520 ft | 262 kts | 278° |
| 2026-05-04 23:10 | 25.20025 | 55.72489 | 9379 ft | 263 kts | 278° |
| 2026-05-04 23:10 | 25.20357 | 55.70506 | 9241 ft | 262 kts | 278° |
| 2026-05-04 23:10 | 25.20691 | 55.68530 | 9123 ft | 262 kts | 278° |
| 2026-05-04 23:10 | 25.21028 | 55.66559 | 8988 ft | 261 kts | 278° |
| 2026-05-04 23:11 | 25.21366 | 55.64592 | 8857 ft | 261 kts | 278° |
| 2026-05-04 23:11 | 25.21704 | 55.62627 | 8729 ft | 260 kts | 278° |
| 2026-05-04 23:11 | 25.22041 | 55.60666 | 8540 ft | 260 kts | 278° |
| 2026-05-04 23:11 | 25.22379 | 55.58698 | 8163 ft | 260 kts | 278° |
| 2026-05-04 23:12 | 25.22712 | 55.56775 | 7983 ft | 250 kts | 279° |
| 2026-05-04 23:12 | 25.23173 | 55.54964 | 7764 ft | 242 kts | 291° |
| 2026-05-04 23:12 | 25.23951 | 55.53344 | 7541 ft | 236 kts | 298° |
| 2026-05-04 23:12 | 25.24800 | 55.51809 | 7305 ft | 232 kts | 299° |
| 2026-05-04 23:13 | 25.25653 | 55.50290 | 7245 ft | 233 kts | 299° |
| 2026-05-04 23:13 | 25.26506 | 55.48766 | 7245 ft | 233 kts | 299° |
| 2026-05-04 23:13 | 25.27355 | 55.47242 | 7245 ft | 233 kts | 299° |
| 2026-05-04 23:13 | 25.28202 | 55.45716 | 7247 ft | 233 kts | 299° |
| 2026-05-04 23:14 | 25.29049 | 55.44194 | 7247 ft | 233 kts | 299° |
| 2026-05-04 23:14 | 25.29899 | 55.42669 | 7246 ft | 233 kts | 299° |
| 2026-05-04 23:14 | 25.30748 | 55.41147 | 7245 ft | 233 kts | 299° |
| 2026-05-04 23:14 | 25.31588 | 55.39641 | 7042 ft | 228 kts | 299° |
| 2026-05-04 23:15 | 25.32422 | 55.38145 | 6722 ft | 230 kts | 299° |
| 2026-05-04 23:15 | 25.33261 | 55.36640 | 6540 ft | 230 kts | 299° |
| 2026-05-04 23:15 | 25.34098 | 55.35137 | 6408 ft | 230 kts | 299° |
| 2026-05-04 23:15 | 25.34940 | 55.33624 | 6120 ft | 232 kts | 299° |
| 2026-05-04 23:16 | 25.35777 | 55.32116 | 5965 ft | 229 kts | 299° |
| 2026-05-04 23:16 | 25.36610 | 55.30615 | 5943 ft | 229 kts | 299° |
| 2026-05-04 23:16 | 25.37443 | 55.29114 | 5943 ft | 229 kts | 299° |
| 2026-05-04 23:16 | 25.38274 | 55.27614 | 5838 ft | 230 kts | 299° |
| 2026-05-04 23:17 | 25.39108 | 55.26110 | 5657 ft | 228 kts | 299° |
| 2026-05-04 23:17 | 25.39938 | 55.24614 | 5644 ft | 228 kts | 299° |
| 2026-05-04 23:17 | 25.40767 | 55.23119 | 5645 ft | 227 kts | 299° |
| 2026-05-04 23:17 | 25.41592 | 55.21631 | 5648 ft | 227 kts | 299° |
| 2026-05-04 23:18 | 25.42419 | 55.20137 | 5646 ft | 227 kts | 299° |
| 2026-05-04 23:18 | 25.43243 | 55.18646 | 5645 ft | 227 kts | 299° |
| 2026-05-04 23:18 | 25.44067 | 55.17153 | 5646 ft | 227 kts | 299° |
| 2026-05-04 23:18 | 25.44891 | 55.15660 | 5649 ft | 227 kts | 299° |
| 2026-05-04 23:19 | 25.45715 | 55.14170 | 5646 ft | 227 kts | 299° |
| 2026-05-04 23:19 | 25.46516 | 55.12728 | 5638 ft | 215 kts | 299° |
| 2026-05-04 23:19 | 25.47278 | 55.11363 | 5561 ft | 203 kts | 299° |
| 2026-05-04 23:19 | 25.48024 | 55.10027 | 5299 ft | 201 kts | 299° |
| 2026-05-04 23:20 | 25.48753 | 55.08715 | 5026 ft | 199 kts | 299° |
| 2026-05-04 23:20 | 25.49465 | 55.07431 | 4950 ft | 199 kts | 299° |
| 2026-05-04 23:20 | 25.50188 | 55.06125 | 4945 ft | 199 kts | 299° |
| 2026-05-04 23:20 | 25.50910 | 55.04821 | 4948 ft | 199 kts | 299° |
| 2026-05-04 23:21 | 25.51552 | 55.03473 | 4947 ft | 197 kts | 287° |
| 2026-05-04 23:21 | 25.51620 | 55.01991 | 4943 ft | 195 kts | 252° |
| 2026-05-04 23:21 | 25.50881 | 55.00771 | 4948 ft | 193 kts | 218° |
| 2026-05-04 23:21 | 25.49773 | 54.99940 | 4665 ft | 194 kts | 208° |
| 2026-05-04 23:22 | 25.48566 | 54.99246 | 4333 ft | 196 kts | 199° |
| 2026-05-04 23:22 | 25.47231 | 54.99089 | 4244 ft | 196 kts | 166° |
| 2026-05-04 23:22 | 25.46056 | 54.99814 | 4250 ft | 196 kts | 139° |
| 2026-05-04 23:22 | 25.45077 | 55.00875 | 4249 ft | 198 kts | 128° |
| 2026-05-04 23:23 | 25.44259 | 55.02102 | 4245 ft | 199 kts | 121° |
| 2026-05-04 23:23 | 25.43517 | 55.03397 | 4247 ft | 200 kts | 120° |
| 2026-05-04 23:23 | 25.42792 | 55.04709 | 4152 ft | 202 kts | 119° |
| 2026-05-04 23:23 | 25.42076 | 55.06045 | 3967 ft | 200 kts | 118° |
| 2026-05-04 23:24 | 25.41382 | 55.07373 | 3947 ft | 200 kts | 118° |
| 2026-05-04 23:24 | 25.40692 | 55.08703 | 3946 ft | 199 kts | 118° |
| 2026-05-04 23:24 | 25.40000 | 55.10030 | 3946 ft | 199 kts | 118° |
| 2026-05-04 23:24 | 25.39302 | 55.11351 | 3946 ft | 199 kts | 118° |
| 2026-05-04 23:25 | 25.38593 | 55.12667 | 3946 ft | 199 kts | 119° |
| 2026-05-04 23:25 | 25.37871 | 55.13968 | 3946 ft | 198 kts | 120° |
| 2026-05-04 23:25 | 25.37142 | 55.15261 | 3947 ft | 198 kts | 119° |
| 2026-05-04 23:25 | 25.36356 | 55.16511 | 3951 ft | 198 kts | 124° |
| 2026-05-04 23:26 | 25.35608 | 55.17790 | 3886 ft | 198 kts | 118° |
| 2026-05-04 23:26 | 25.34915 | 55.19097 | 3666 ft | 197 kts | 119° |
| 2026-05-04 23:26 | 25.34210 | 55.20373 | 3425 ft | 193 kts | 120° |
| 2026-05-04 23:26 | 25.33506 | 55.21638 | 3107 ft | 194 kts | 119° |
| 2026-05-04 23:27 | 25.32802 | 55.22910 | 2821 ft | 194 kts | 119° |
| 2026-05-04 23:27 | 25.32097 | 55.24183 | 2557 ft | 194 kts | 119° |
| 2026-05-04 23:27 | 25.31404 | 55.25433 | 2313 ft | 193 kts | 119° |
| 2026-05-04 23:27 | 25.30707 | 55.26691 | 2053 ft | 191 kts | 119° |
| 2026-05-04 23:28 | 25.30013 | 55.27944 | 1794 ft | 191 kts | 119° |
| 2026-05-04 23:28 | 25.29325 | 55.29184 | 1534 ft | 184 kts | 119° |
| 2026-05-04 23:28 | 25.28687 | 55.30335 | 1304 ft | 172 kts | 119° |
| 2026-05-04 23:28 | 25.28059 | 55.31461 | 1079 ft | 170 kts | 119° |
| 2026-05-04 23:29 | 25.27458 | 55.32541 | 848 ft | 161 kts | 119° |
| 2026-05-04 23:29 | 25.26874 | 55.33592 | 650 ft | 160 kts | 119° |
| 2026-05-04 23:29 | 25.26294 | 55.34632 | 424 ft | 159 kts | 119° |
| 2026-05-04 23:29 | 25.25717 | 55.35668 | 229 ft | 158 kts | 119° |
| 2026-05-04 23:30 | 25.25145 | 55.36695 | 39 ft | 156 kts | 124° |
| 2026-05-04 23:30 | 25.24688 | 55.37519 | 28 ft | 75 kts | 121° |
| 2026-05-04 23:30 | 25.24493 | 55.37861 | 30 ft | 41 kts | 122° |
| 2026-05-04 23:30 | 25.24344 | 55.38119 | 32 ft | 39 kts | 122° |
| 2026-05-04 23:31 | 25.24209 | 55.38370 | 32 ft | 38 kts | 121° |
| 2026-05-04 23:31 | 25.24088 | 55.38583 | 30 ft | 13 kts | 127° |
| 2026-05-04 23:31 | 25.24026 | 55.38671 | 29 ft | 16 kts | 129° |
| 2026-05-04 23:31 | 25.23953 | 55.38070 | 26 ft | 0 kts | 211° |